Time;durP1;ratioP1;P1;durP2;ratioP2;P2;SDS_P1;SDS_P2;PMS_P1;PMS_P2;Temp;Humidity;BMP_temperature;BMP_pressure;BME280_temperature;BME280_humidity;BME280_pressure;Samples;Min_cycle;Max_cycle;Signal;HPM_P1;HPM_P2
2022/01/02 04:53:31;;;;;;;7.88;4.38;;;;;;;14.58;55.40;101302.19;6009233;23;96858;-77
2022/01/02 05:03:13;;;;;;;;;;;;;;;;;;;;;
2022/01/02 05:06:13;;;;;;;;;;;;;;;;;;;;;
2022/01/02 05:09:09;;;;;;;;;;;;;;;;;;;;;
2022/01/02 05:15:26;;;;;;;;;;;;;;;;;;;;;
2022/01/02 05:18:32;;;;;;;8.68;5.10;;;;;;;14.30;55.89;101258.19;5887401;23;118258;-78
2022/01/02 05:24:17;;;;;;;9.50;4.87;;;;;;;14.04;57.01;101252.22;6002506;23;98532;-78
2022/01/02 05:30:05;;;;;;;;;;;;;;;;;;;;;
2022/01/02 05:33:31;;;;;;;;;;;;;;;;;;;;;
2022/01/02 06:30:57;;;;;;;9.35;4.97;;;;;;;14.24;57.13;101149.44;6002966;23;97036;-78
2022/01/02 06:48:32;;;;;;;7.75;4.70;;;;;;;14.23;57.00;101129.13;6005717;23;97011;-77
2022/01/02 06:51:44;;;;;;;10.43;5.78;;;;;;;14.37;57.81;101139.16;5981007;23;97022;-77
2022/01/02 07:54:27;;;;;;;;;;;;;;;;;;;;;
2022/01/02 08:14:11;;;;;;;8.10;3.92;;;;;;;14.92;56.46;101092.25;5989668;23;96781;-77
2022/01/02 08:17:19;;;;;;;;;;;;;;;;;;;;;
2022/01/02 08:20:49;;;;;;;;;;;;;;;;;;;;;
2022/01/02 11:00:48;;;;;;;7.75;3.25;;;;;;;16.15;57.62;100875.41;5997652;23;97153;-78
2022/01/02 11:03:34;;;;;;;4.07;2.90;;;;;;;16.03;57.91;100865.44;6000839;23;96669;-77
2022/01/02 11:06:10;;;;;;;7.17;2.90;;;;;;;16.18;57.51;100858.38;5999243;23;97049;-78
2022/01/02 11:08:46;;;;;;;10.63;3.67;;;;;;;16.14;57.68;100841.72;5998535;23;98965;-78
2022/01/02 11:11:25;;;;;;;;;;;;;;;;;;;;;
2022/01/02 11:13:58;;;;;;;10.18;3.05;;;;;;;15.89;58.58;100846.69;5997463;23;117929;-76
2022/01/02 11:19:55;;;;;;;;;;;;;;;;;;;;;
2022/01/02 11:22:54;;;;;;;6.38;3.35;;;;;;;15.64;59.07;100809.88;5998835;23;126378;-78
2022/01/02 11:25:46;;;;;;;13.52;3.50;;;;;;;15.77;59.13;100810.94;6000293;23;97087;-77
2022/01/02 11:29:04;;;;;;;;;;;;;;;;;;;;;
2022/01/02 11:32:16;;;;;;;;;;;;;;;;;;;;;
2022/01/02 11:34:56;;;;;;;;;;;;;;;;;;;;;
2022/01/02 11:38:04;;;;;;;14.45;4.15;;;;;;;15.97;59.52;100780.50;5992747;23;119716;-79
2022/01/02 11:41:13;;;;;;;9.00;3.72;;;;;;;15.98;59.59;100765.38;5856854;24;97495;-79
2022/01/02 11:44:23;;;;;;;;;;;;;;;;;;;;;
2022/01/02 11:47:17;;;;;;;11.85;4.38;;;;;;;15.84;59.75;100740.38;5992306;23;127900;-78
2022/01/02 11:50:05;;;;;;;12.18;4.47;;;;;;;15.59;59.67;100742.72;6000358;23;97156;-78
2022/01/02 11:52:40;;;;;;;12.63;4.03;;;;;;;15.69;60.42;100749.22;6001446;23;97215;-77
2022/01/02 11:55:35;;;;;;;12.05;4.20;;;;;;;15.78;60.14;100754.03;6001239;23;99343;-76
2022/01/02 11:58:04;;;;;;;14.25;4.72;;;;;;;15.94;60.04;100736.25;6001073;23;98773;-78
2022/01/02 12:00:45;;;;;;;;;;;;;;;;;;;;;
2022/01/02 12:04:24;;;;;;;;;;;;;;;;;;;;;
2022/01/02 12:07:11;;;;;;;;;;;;;;;;;;;;;
2022/01/02 12:09:46;;;;;;;10.43;4.13;;;;;;;15.87;60.61;100752.66;5989768;23;126979;-78
2022/01/02 12:12:15;;;;;;;12.73;4.32;;;;;;;15.86;60.49;100750.94;6000292;23;96861;-77
2022/01/02 12:14:57;;;;;;;14.98;3.97;;;;;;;15.91;60.35;100743.53;6001316;23;96946;-76
2022/01/02 12:17:26;;;;;;;9.15;4.35;;;;;;;15.84;60.76;100740.38;6000059;23;99155;-79
2022/01/02 12:20:12;;;;;;;11.02;4.13;;;;;;;15.58;61.47;100730.31;6001183;23;97733;-77
2022/01/02 12:23:06;;;;;;;9.52;3.60;;;;;;;15.94;60.89;100733.56;6003400;23;97369;-77
2022/01/02 12:25:34;;;;;;;12.70;3.50;;;;;;;15.49;60.95;100714.84;6004419;23;97137;-77
2022/01/02 12:28:02;;;;;;;11.48;4.05;;;;;;;15.50;62.24;100697.91;6003419;23;97687;-78
2022/01/02 12:30:40;;;;;;;14.98;3.75;;;;;;;15.37;62.70;100686.22;6001824;23;99096;-77
2022/01/02 12:33:07;;;;;;;11.55;3.90;;;;;;;15.35;62.62;100674.81;6001470;23;97305;-77
2022/01/02 12:35:41;;;;;;;13.32;4.10;;;;;;;15.46;62.32;100672.41;6001031;23;97143;-76
2022/01/02 12:38:11;;;;;;;10.25;3.55;;;;;;;15.31;62.66;100668.81;6002199;23;97910;-76
2022/01/02 12:40:53;;;;;;;;;;;;;;;;;;;;;
2022/01/02 12:43:26;;;;;;;8.98;4.43;;;;;;;15.51;62.21;100663.22;5997154;23;117735;-77
2022/01/02 12:45:54;;;;;;;13.68;3.70;;;;;;;15.35;62.87;100654.38;6008287;23;96965;-77
2022/01/02 12:48:31;;;;;;;9.27;3.45;;;;;;;15.11;63.10;100650.41;6016245;23;99040;-78
2022/01/02 12:51:08;;;;;;;10.70;3.83;;;;;;;15.22;62.90;100641.84;6019047;23;98002;-77
2022/01/02 12:53:45;;;;;;;8.32;4.13;;;;;;;15.20;63.32;100628.63;6023640;23;96403;-79
2022/01/02 12:56:16;;;;;;;10.77;3.88;;;;;;;15.23;63.17;100628.44;6021644;23;97129;-77
2022/01/02 12:58:52;;;;;;;7.72;3.50;;;;;;;15.12;63.12;100613.09;6019065;23;97910;-77
2022/01/02 13:01:26;;;;;;;7.30;4.13;;;;;;;14.73;64.44;100607.31;6020960;23;97907;-78
2022/01/02 13:03:54;;;;;;;9.00;3.63;;;;;;;14.94;64.34;100599.94;6002356;23;96910;-77
2022/01/02 13:06:21;;;;;;;8.85;3.88;;;;;;;15.11;63.74;100597.19;6001378;23;96935;-79
2022/01/02 13:09:02;;;;;;;10.20;4.25;;;;;;;15.12;63.91;100590.94;6000033;23;98902;-77
2022/01/02 13:11:47;;;;;;;;;;;;;;;;;;;;;
2022/01/02 13:14:13;;;;;;;8.35;4.10;;;;;;;15.24;63.24;100584.91;5996048;23;118396;-77
2022/01/02 13:16:43;;;;;;;12.73;4.45;;;;;;;15.24;63.27;100598.22;6001537;23;97010;-77
2022/01/02 13:19:40;;;;;;;10.85;4.00;;;;;;;15.36;62.60;100597.50;5999740;23;98996;-77
2022/01/02 13:22:14;;;;;;;10.35;3.90;;;;;;;15.45;62.56;100581.00;5940113;23;98798;-78
2022/01/02 13:24:53;;;;;;;13.75;3.78;;;;;;;15.37;62.29;100561.09;5983390;23;97151;-77
2022/01/02 13:27:20;;;;;;;7.25;3.50;;;;;;;15.38;61.93;100579.66;6000588;23;97106;-77
2022/01/02 13:29:56;;;;;;;9.90;3.60;;;;;;;15.49;62.11;100590.53;5998572;23;98940;-77
2022/01/02 13:32:23;;;;;;;9.00;4.07;;;;;;;15.36;61.72;100592.19;6001914;23;99069;-77
2022/01/02 13:35:05;;;;;;;9.00;4.28;;;;;;;15.44;61.80;100570.44;6003149;23;97135;-77
2022/01/02 13:37:57;;;;;;;;;;;;;;;;;;;;;
2022/01/02 13:40:47;;;;;;;8.98;4.00;;;;;;;15.18;63.06;100568.44;5988026;23;128062;-78
2022/01/02 14:26:28;;;;;;;;;;;;;;;;;;;;;
2022/01/02 14:29:02;;;;;;;14.05;3.78;;;;;;;15.19;62.22;100549.72;5990897;23;128977;-77
2022/01/02 15:22:46;;;;;;;8.50;3.83;;;;;;;14.94;62.09;100461.59;5800947;24;96774;-78
2022/01/02 15:39:08;;;;;;;7.30;4.32;;;;;;;15.26;60.43;100475.69;5898876;23;99316;-78
2022/01/02 15:44:46;;;;;;;12.02;4.00;;;;;;;15.32;60.66;100483.31;5967618;23;100413;-75
2022/01/02 15:47:13;;;;;;;13.73;4.20;;;;;;;15.23;60.34;100481.22;6001715;23;97226;-74
2022/01/02 15:49:40;;;;;;;13.13;3.65;;;;;;;15.15;60.39;100485.19;6001586;23;99322;-74
2022/01/02 15:52:06;;;;;;;7.43;3.25;;;;;;;15.25;60.44;100474.84;6002023;23;97627;-74
2022/01/02 15:54:34;;;;;;;13.13;4.05;;;;;;;15.14;60.33;100469.28;6004912;23;97074;-73
2022/01/02 15:57:00;;;;;;;14.35;3.97;;;;;;;15.34;59.86;100476.97;6007575;23;97499;-73
2022/01/02 15:59:27;;;;;;;8.02;3.47;;;;;;;15.38;59.57;100473.16;6003012;23;99370;-76
2022/01/02 16:01:54;;;;;;;6.35;3.40;;;;;;;15.11;60.53;100466.78;5999767;23;99320;-74
2022/01/02 16:04:21;;;;;;;13.10;4.47;;;;;;;15.13;60.55;100479.06;6002408;23;96572;-75
2022/01/02 16:06:48;;;;;;;6.47;3.40;;;;;;;15.28;59.72;100487.97;6003267;23;96773;-75
2022/01/02 16:09:14;;;;;;;8.00;3.80;;;;;;;15.25;59.38;100480.16;6002147;23;99274;-74
2022/01/02 16:11:41;;;;;;;8.07;3.60;;;;;;;15.24;59.72;100478.44;6003776;23;98954;-75
2022/01/02 16:14:07;;;;;;;7.80;3.25;;;;;;;15.46;58.73;100476.22;6002682;23;96979;-74
2022/01/02 16:16:34;;;;;;;11.82;3.78;;;;;;;15.54;58.17;100467.81;6002263;23;96830;-74
2022/01/02 16:19:03;;;;;;;13.57;3.60;;;;;;;15.45;58.20;100477.16;6002105;23;98142;-74
2022/01/02 16:21:29;;;;;;;9.88;3.50;;;;;;;15.48;58.01;100479.66;6001265;23;98788;-75
2022/01/02 16:23:56;;;;;;;4.47;3.00;;;;;;;15.46;58.05;100467.38;6002052;23;96674;-75
2022/01/02 16:26:23;;;;;;;9.60;4.10;;;;;;;15.61;57.74;100460.31;6002172;23;97042;-74
2022/01/02 16:28:50;;;;;;;8.27;3.42;;;;;;;15.62;57.34;100460.19;6001158;23;99750;-74
2022/01/02 16:31:19;;;;;;;13.65;4.20;;;;;;;15.61;57.22;100463.84;6002778;23;99371;-75
2022/01/02 16:33:46;;;;;;;10.90;3.38;;;;;;;15.60;57.85;100466.59;6001614;23;97108;-74
2022/01/02 16:36:14;;;;;;;9.63;3.40;;;;;;;15.36;58.04;100464.41;6001634;23;97323;-74
2022/01/02 16:38:40;;;;;;;10.50;3.53;;;;;;;15.58;57.52;100464.00;6001835;23;99150;-74
2022/01/02 16:41:06;;;;;;;7.07;3.20;;;;;;;15.40;57.52;100465.94;6001824;23;99263;-74
2022/01/02 16:43:33;;;;;;;6.30;3.35;;;;;;;15.34;57.53;100461.00;5999753;23;96995;-75
2022/01/02 16:45:59;;;;;;;8.13;3.40;;;;;;;15.48;57.39;100461.03;5999452;23;97126;-73
2022/01/02 16:48:26;;;;;;;12.82;3.35;;;;;;;15.49;57.12;100459.22;6001908;23;99365;-73
2022/01/02 16:50:52;;;;;;;9.35;3.72;;;;;;;15.50;56.92;100450.25;6000830;23;101373;-75
2022/01/02 16:53:19;;;;;;;6.20;2.70;;;;;;;15.65;56.70;100451.16;6000240;23;97096;-74
2022/01/02 16:55:46;;;;;;;10.10;3.53;;;;;;;15.66;56.66;100443.09;6001868;23;97060;-74
2022/01/02 16:58:12;;;;;;;7.45;3.45;;;;;;;15.70;56.02;100446.41;6002420;23;99746;-74
2022/01/02 17:00:39;;;;;;;5.15;2.88;;;;;;;15.48;57.09;100445.03;6003159;23;98817;-74
2022/01/02 17:03:05;;;;;;;7.88;3.60;;;;;;;15.47;57.06;100438.00;6005962;23;96899;-73
2022/01/02 17:05:32;;;;;;;9.48;3.35;;;;;;;15.53;56.46;100445.66;6003220;23;97177;-74
2022/01/02 17:07:59;;;;;;;5.72;2.72;;;;;;;15.62;56.17;100438.06;6009841;23;98947;-75
2022/01/02 17:10:28;;;;;;;5.07;3.20;;;;;;;15.63;56.60;100442.41;6021231;23;97144;-75
2022/01/02 17:12:56;;;;;;;9.05;3.65;;;;;;;15.44;56.46;100430.19;6019680;23;96752;-74
2022/01/02 17:15:23;;;;;;;6.50;3.10;;;;;;;15.59;56.05;100428.44;6015158;23;96744;-74
2022/01/02 17:17:52;;;;;;;7.72;3.63;;;;;;;15.65;56.11;100432.53;6016288;23;99113;-75
2022/01/02 17:20:19;;;;;;;6.45;3.45;;;;;;;15.72;55.37;100432.06;6005970;23;97606;-75
2022/01/02 17:22:46;;;;;;;6.78;3.40;;;;;;;15.51;55.77;100426.22;6001664;23;97244;-74
2022/01/02 17:25:13;;;;;;;6.95;3.08;;;;;;;15.52;55.61;100425.28;6003061;23;96937;-73
2022/01/02 17:27:41;;;;;;;8.00;3.08;;;;;;;15.70;55.01;100419.78;6003587;23;97890;-75
2022/01/02 17:30:10;;;;;;;7.15;3.40;;;;;;;15.60;55.29;100416.84;6000437;23;98752;-75
2022/01/02 17:32:38;;;;;;;5.32;3.20;;;;;;;15.45;55.59;100417.72;6002033;23;97245;-74
2022/01/02 17:35:05;;;;;;;10.13;3.53;;;;;;;15.53;55.66;100432.34;6001449;23;96981;-74
2022/01/02 17:37:31;;;;;;;5.35;3.10;;;;;;;15.37;56.01;100435.97;6001113;23;99165;-75
2022/01/02 17:39:58;;;;;;;10.07;3.42;;;;;;;15.07;56.83;100431.53;6000500;23;99203;-75
2022/01/02 17:42:27;;;;;;;6.25;3.35;;;;;;;15.30;56.17;100421.31;6003371;23;96958;-75
2022/01/02 17:44:55;;;;;;;6.95;3.17;;;;;;;15.48;55.75;100420.22;6003494;23;96836;-75
2022/01/02 17:47:21;;;;;;;6.72;3.60;;;;;;;15.33;56.00;100432.66;6002017;23;99202;-75
2022/01/02 17:49:47;;;;;;;9.48;3.70;;;;;;;15.26;55.71;100422.44;6002672;23;97097;-74
2022/01/02 17:52:14;;;;;;;7.10;3.70;;;;;;;15.11;56.47;100418.91;6002434;23;96896;-74
2022/01/02 17:54:40;;;;;;;6.72;3.72;;;;;;;15.43;55.73;100411.63;6003292;23;96826;-76
2022/01/02 17:57:07;;;;;;;5.28;3.30;;;;;;;15.42;55.28;100415.28;6019126;23;97666;-73
2022/01/02 17:59:34;;;;;;;10.63;3.17;;;;;;;15.47;55.22;100413.19;6024316;23;98140;-74
2022/01/02 18:02:02;;;;;;;6.82;3.70;;;;;;;15.46;55.04;100411.47;6023047;23;96859;-74
2022/01/02 18:04:28;;;;;;;5.90;3.45;;;;;;;15.39;55.48;100412.78;6022138;23;96864;-75
2022/01/02 18:06:55;;;;;;;9.25;3.65;;;;;;;15.53;55.26;100413.69;6022305;23;98288;-75
2022/01/02 18:09:24;;;;;;;5.55;3.17;;;;;;;15.51;54.66;100415.56;6023943;23;98289;-74
2022/01/02 18:11:51;;;;;;;8.13;3.20;;;;;;;15.44;54.64;100411.53;6023376;23;96445;-74
2022/01/02 18:14:18;;;;;;;11.85;3.55;;;;;;;15.73;54.02;100419.59;6023176;23;97137;-74
2022/01/02 18:16:45;;;;;;;8.27;3.10;;;;;;;15.63;54.31;100426.44;6022031;23;101010;-75
2022/01/02 18:19:13;;;;;;;9.52;3.30;;;;;;;15.48;55.05;100426.41;6024035;23;97653;-76
2022/01/02 18:21:46;;;;;;;7.25;2.90;;;;;;;15.61;54.43;100413.22;6023490;23;97269;-74
2022/01/02 18:24:15;;;;;;;4.18;2.88;;;;;;;15.67;54.09;100425.31;6022910;23;96687;-75
2022/01/02 18:26:41;;;;;;;10.75;3.00;;;;;;;15.63;54.01;100431.75;6026189;23;97747;-73
2022/01/02 18:29:08;;;;;;;7.78;3.28;;;;;;;15.41;55.08;100418.88;6026036;23;98083;-75
2022/01/02 18:31:34;;;;;;;8.02;3.10;;;;;;;15.33;54.87;100427.31;6019321;23;96618;-76
2022/01/02 18:34:01;;;;;;;4.90;3.10;;;;;;;15.61;54.30;100420.38;6020351;23;96892;-74
2022/01/02 18:36:28;;;;;;;8.05;3.38;;;;;;;14.98;55.16;100431.22;6019499;23;96499;-75
2022/01/02 18:38:55;;;;;;;6.85;3.17;;;;;;;15.40;55.09;100426.00;6022226;23;98470;-75
2022/01/02 18:41:21;;;;;;;7.28;3.05;;;;;;;15.08;55.64;100421.75;6020011;23;97133;-74
2022/01/02 18:43:48;;;;;;;5.10;3.22;;;;;;;15.30;54.83;100418.66;6018290;23;96779;-74
2022/01/02 18:46:14;;;;;;;8.20;3.22;;;;;;;15.42;54.44;100415.28;6023951;23;97873;-73
2022/01/02 18:48:40;;;;;;;8.50;3.20;;;;;;;15.34;54.11;100426.38;6024193;23;97940;-73
2022/01/02 18:51:07;;;;;;;7.88;3.58;;;;;;;15.63;53.83;100418.44;6024410;23;96607;-72
2022/01/02 18:54:01;;;;;;;6.97;2.70;;;;;;;15.26;54.39;100430.44;6019558;23;96642;-73
2022/01/02 18:56:48;;;;;;;7.45;2.90;;;;;;;15.51;53.91;100425.34;6015787;23;98432;-76
2022/01/02 18:59:16;;;;;;;10.02;3.53;;;;;;;15.34;54.13;100428.19;6021721;23;98160;-74
2022/01/02 19:01:43;;;;;;;4.82;2.20;;;;;;;15.45;53.94;100426.56;6022860;23;96497;-76
2022/01/02 19:04:09;;;;;;;5.82;2.75;;;;;;;15.61;53.81;100439.88;6028843;23;96967;-74
2022/01/02 19:06:36;;;;;;;6.70;2.83;;;;;;;15.10;54.17;100435.81;6024718;23;98552;-75
2022/01/02 19:09:04;;;;;;;8.02;3.15;;;;;;;15.28;54.47;100440.06;6029031;23;97737;-74
2022/01/02 19:11:31;;;;;;;6.72;2.70;;;;;;;15.42;53.71;100440.09;6028651;23;96408;-74
2022/01/02 19:13:58;;;;;;;10.15;3.20;;;;;;;15.78;53.13;100449.47;6028485;23;96483;-74
2022/01/02 19:16:24;;;;;;;5.07;2.80;;;;;;;15.49;53.39;100443.25;6024881;23;99760;-74
2022/01/02 19:18:51;;;;;;;5.07;2.55;;;;;;;15.45;54.03;100445.22;6026753;23;99470;-75
2022/01/02 19:21:17;;;;;;;8.98;3.10;;;;;;;15.37;53.53;100447.47;6025983;23;96795;-75
2022/01/02 19:23:45;;;;;;;4.45;2.40;;;;;;;15.65;53.56;100436.06;6025700;23;96449;-75
2022/01/02 19:26:13;;;;;;;8.32;3.05;;;;;;;15.45;53.16;100445.22;6025436;23;99679;-74
2022/01/02 19:28:40;;;;;;;6.38;2.65;;;;;;;15.39;53.37;100442.94;6026556;23;98038;-72
2022/01/02 19:31:06;;;;;;;11.98;3.30;;;;;;;15.37;53.77;100455.47;6023656;23;96390;-75
2022/01/02 19:33:33;;;;;;;7.70;3.03;;;;;;;15.39;53.61;100458.03;6019964;23;97033;-75
2022/01/02 19:35:59;;;;;;;8.77;2.80;;;;;;;15.40;54.05;100452.63;6009868;23;98470;-75
2022/01/02 19:38:26;;;;;;;7.25;2.95;;;;;;;15.61;52.84;100452.31;6015574;23;98801;-74
2022/01/02 19:40:52;;;;;;;8.02;3.17;;;;;;;15.68;52.94;100453.66;6006298;23;96848;-75
2022/01/02 19:43:20;;;;;;;9.65;3.00;;;;;;;15.95;52.18;100462.59;6006800;23;98795;-75
2022/01/02 19:45:46;;;;;;;7.65;3.08;;;;;;;15.34;53.92;100463.66;6005592;23;99235;-74
2022/01/02 19:48:13;;;;;;;9.27;3.20;;;;;;;15.61;52.99;100457.66;6006104;23;99031;-75
2022/01/02 19:50:40;;;;;;;11.02;3.10;;;;;;;15.60;53.26;100471.91;6006352;23;96959;-76
2022/01/02 19:53:07;;;;;;;6.47;2.95;;;;;;;15.54;52.95;100468.69;6004196;23;97662;-75
2022/01/02 19:55:34;;;;;;;5.05;2.67;;;;;;;15.45;53.89;100463.00;6005918;23;98852;-75
2022/01/02 19:58:00;;;;;;;5.78;2.80;;;;;;;15.40;53.41;100467.75;6004957;23;98518;-76
2022/01/02 20:00:28;;;;;;;6.13;3.13;;;;;;;15.26;54.30;100465.91;6003682;23;96633;-74
2022/01/02 20:02:54;;;;;;;8.32;3.10;;;;;;;15.66;53.65;100466.22;6003635;23;97559;-76
2022/01/02 20:05:21;;;;;;;7.68;2.72;;;;;;;15.88;52.71;100475.44;6003606;23;99149;-74
2022/01/02 20:07:47;;;;;;;8.68;3.65;;;;;;;15.63;52.92;100477.03;6007155;23;96727;-74
2022/01/02 20:10:15;;;;;;;9.32;3.20;;;;;;;15.52;53.43;100482.97;6007667;23;96613;-75
2022/01/02 20:12:42;;;;;;;6.38;3.13;;;;;;;15.61;53.42;100478.97;6004972;23;96764;-74
2022/01/02 20:15:11;;;;;;;8.73;3.00;;;;;;;15.88;52.38;100477.28;6003977;23;102335;-76
2022/01/02 20:17:40;;;;;;;6.60;2.50;;;;;;;15.70;53.18;100481.03;6005530;23;98290;-74
2022/01/02 20:20:10;;;;;;;11.48;3.03;;;;;;;15.62;53.17;100476.16;6005316;23;97183;-74
2022/01/02 20:22:36;;;;;;;8.68;2.80;;;;;;;15.80;52.58;100472.41;6007153;23;97093;-74
2022/01/02 20:25:04;;;;;;;5.43;2.38;;;;;;;15.76;52.34;100472.69;6005668;23;97641;-75
2022/01/02 20:27:31;;;;;;;8.38;3.58;;;;;;;15.72;52.81;100460.50;6006170;23;101409;-75
2022/01/02 20:30:01;;;;;;;12.90;2.70;;;;;;;15.82;52.40;100462.50;6008596;23;97138;-74
2022/01/02 20:32:27;;;;;;;6.85;2.50;;;;;;;15.70;52.55;100467.72;6008058;23;96968;-76
2022/01/02 20:34:55;;;;;;;9.80;2.75;;;;;;;15.83;52.32;100469.53;6004702;23;100904;-77
2022/01/02 20:37:22;;;;;;;6.78;2.95;;;;;;;15.28;53.48;100464.03;6005084;23;101221;-75
2022/01/02 20:39:50;;;;;;;7.88;2.95;;;;;;;15.49;53.25;100460.03;6004753;23;97217;-75
2022/01/02 20:42:17;;;;;;;5.82;2.17;;;;;;;15.41;53.17;100459.69;6005027;23;96769;-74
2022/01/02 20:44:44;;;;;;;6.68;2.58;;;;;;;15.46;53.33;100470.03;6003011;23;99419;-75
2022/01/02 20:47:10;;;;;;;5.78;2.78;;;;;;;15.30;53.41;100469.22;6002824;23;99308;-75
2022/01/02 20:49:36;;;;;;;6.53;2.72;;;;;;;15.29;53.42;100470.19;6003829;23;96728;-76
2022/01/02 20:52:04;;;;;;;8.23;2.65;;;;;;;15.35;53.21;100468.03;6009160;23;97316;-76
2022/01/02 20:54:31;;;;;;;9.18;2.60;;;;;;;15.47;53.20;100469.09;6005299;23;99410;-77
2022/01/02 20:56:57;;;;;;;9.50;2.33;;;;;;;15.41;53.22;100482.78;6005911;23;99139;-76
2022/01/02 20:59:24;;;;;;;4.03;2.38;;;;;;;15.33;53.23;100472.59;6006315;23;97334;-75
2022/01/02 21:01:50;;;;;;;8.15;2.58;;;;;;;15.34;53.13;100476.97;6005715;23;97284;-75
2022/01/02 21:04:17;;;;;;;5.70;2.33;;;;;;;15.54;52.57;100478.47;6007793;23;99175;-76
2022/01/02 21:06:43;;;;;;;10.52;2.53;;;;;;;15.62;52.41;100472.69;6008435;23;99363;-75
2022/01/02 21:09:11;;;;;;;6.72;2.47;;;;;;;15.67;52.12;100476.78;6005614;23;96754;-75
2022/01/02 21:11:37;;;;;;;9.30;2.70;;;;;;;15.36;52.97;100474.22;6004644;23;96762;-75
2022/01/02 21:14:04;;;;;;;9.77;2.42;;;;;;;15.27;52.85;100472.94;6000953;23;99299;-76
2022/01/02 21:16:30;;;;;;;7.72;2.42;;;;;;;15.32;52.98;100478.00;6003020;23;98957;-75
2022/01/02 21:18:56;;;;;;;6.70;2.70;;;;;;;15.50;52.43;100483.06;6002721;23;97165;-75
2022/01/02 21:21:23;;;;;;;7.13;1.98;;;;;;;15.54;52.39;100475.81;6005627;23;96883;-76
2022/01/02 21:23:49;;;;;;;8.73;2.55;;;;;;;15.54;52.65;100476.66;6002481;23;99048;-75
2022/01/02 21:26:17;;;;;;;8.93;2.80;;;;;;;15.47;52.56;100475.28;6003131;23;99381;-75
2022/01/02 21:28:44;;;;;;;10.32;2.65;;;;;;;15.47;52.51;100477.94;6004863;23;97349;-75
2022/01/02 21:31:10;;;;;;;5.85;2.13;;;;;;;15.70;52.12;100475.72;6003274;23;96808;-76
2022/01/02 21:33:37;;;;;;;9.02;3.53;;;;;;;15.71;52.23;100474.78;6002671;23;99092;-75
2022/01/02 21:36:05;;;;;;;5.70;2.58;;;;;;;15.63;51.78;100466.38;6003068;23;99170;-76
2022/01/02 21:38:31;;;;;;;6.32;2.90;;;;;;;15.72;52.06;100473.81;6002366;23;97189;-75
2022/01/02 21:40:58;;;;;;;4.82;2.30;;;;;;;15.72;52.24;100471.16;6003280;23;96889;-75
2022/01/02 21:43:29;;;;;;;7.40;2.70;;;;;;;15.84;51.86;100475.72;6001749;23;99360;-79
2022/01/02 21:45:58;;;;;;;6.15;2.38;;;;;;;15.94;51.58;100471.56;5974908;23;99146;-78
2022/01/02 21:48:26;;;;;;;5.93;2.60;;;;;;;15.79;52.10;100469.84;5974185;23;97113;-78
2022/01/02 21:50:53;;;;;;;7.85;2.92;;;;;;;15.84;52.12;100465.94;5974421;23;97251;-77
2022/01/02 21:53:19;;;;;;;7.43;2.67;;;;;;;15.74;52.07;100469.28;5972056;23;99109;-78
2022/01/02 21:56:22;;;;;;;12.60;2.90;;;;;;;15.97;51.36;100467.84;5973932;23;101307;-80
2022/01/02 22:05:18;;;;;;;8.18;2.45;;;;;;;15.90;51.54;100460.22;5920045;23;100113;-77
2022/01/02 22:07:45;;;;;;;5.78;2.40;;;;;;;15.85;51.60;100462.31;5971846;23;98813;-77
2022/01/02 22:10:11;;;;;;;12.65;3.13;;;;;;;16.04;51.03;100456.69;5974498;23;96947;-77
2022/01/02 22:12:38;;;;;;;6.90;2.40;;;;;;;15.71;51.74;100459.66;5974797;23;97318;-78
2022/01/02 22:15:06;;;;;;;10.65;3.05;;;;;;;15.92;51.55;100457.47;5974199;23;97735;-78
2022/01/02 22:17:35;;;;;;;10.10;2.35;;;;;;;16.05;51.03;100453.09;5975329;23;99505;-77
2022/01/02 22:20:02;;;;;;;7.18;2.58;;;;;;;15.94;51.19;100455.59;5974526;23;96877;-78
2022/01/02 22:22:31;;;;;;;6.55;2.22;;;;;;;15.87;50.83;100447.09;5973318;23;96889;-77
2022/01/02 22:25:00;;;;;;;8.75;2.40;;;;;;;15.99;51.26;100448.16;5973041;23;99017;-77
2022/01/02 22:27:41;;;;;;;4.88;2.03;;;;;;;15.80;50.83;100442.25;5973614;23;98980;-77
2022/01/02 22:30:10;;;;;;;9.43;2.00;;;;;;;15.98;50.88;100433.09;5971641;23;96841;-76
2022/01/02 22:33:32;;;;;;;5.43;2.50;;;;;;;16.21;50.22;100443.16;5974088;23;97544;-79
2022/01/02 22:36:17;;;;;;;7.75;2.63;;;;;;;15.90;50.77;100448.72;5914608;23;98946;-80
2022/01/02 22:38:55;;;;;;;7.13;1.85;;;;;;;15.85;50.79;100435.69;5977091;23;99901;-77
2022/01/02 22:41:32;;;;;;;8.57;2.47;;;;;;;15.88;50.95;100445.31;5983844;23;96671;-78
2022/01/02 22:44:17;;;;;;;7.22;2.17;;;;;;;15.95;50.68;100441.28;5975381;23;96804;-78
2022/01/02 22:46:55;;;;;;;7.82;2.55;;;;;;;15.57;51.63;100445.44;5974790;23;98977;-78
2022/01/02 22:49:49;;;;;;;;;;;;;;;;;;;;;
2022/01/02 22:52:28;;;;;;;5.72;2.13;;;;;;;16.27;49.73;100436.59;5972489;23;118560;-77
2022/01/02 22:54:57;;;;;;;7.95;1.85;;;;;;;16.37;49.49;100436.84;5974993;23;96910;-77
2022/01/02 22:57:29;;;;;;;9.25;2.55;;;;;;;16.33;49.21;100421.06;5974819;23;99187;-77
2022/01/02 22:59:57;;;;;;;7.07;2.47;;;;;;;16.03;49.96;100417.69;5975343;23;99008;-76
2022/01/02 23:02:27;;;;;;;7.95;2.33;;;;;;;15.95;50.56;100401.31;5974964;23;96579;-78
2022/01/02 23:04:54;;;;;;;5.53;2.28;;;;;;;16.05;50.09;100413.13;5974426;23;96901;-76
2022/01/02 23:07:21;;;;;;;7.55;2.72;;;;;;;16.15;50.18;100410.72;5974832;23;98281;-77
2022/01/02 23:09:48;;;;;;;6.40;2.42;;;;;;;16.18;50.07;100403.38;5974871;23;97677;-77
2022/01/02 23:12:16;;;;;;;13.93;2.65;;;;;;;16.04;50.37;100402.53;5974731;23;97471;-78
2022/01/02 23:14:43;;;;;;;7.10;2.78;;;;;;;15.98;50.82;100401.13;5974067;23;97278;-78
2022/01/02 23:17:14;;;;;;;7.03;2.65;;;;;;;15.96;50.34;100403.03;5974557;23;98024;-76
2022/01/02 23:19:42;;;;;;;6.25;2.83;;;;;;;15.90;50.50;100395.41;5974403;23;99197;-77
2022/01/02 23:22:14;;;;;;;6.55;3.45;;;;;;;15.86;50.77;100388.59;5974146;23;97185;-79
2022/01/02 23:24:46;;;;;;;5.72;2.95;;;;;;;15.73;50.92;100385.84;5974922;23;96737;-77
2022/01/02 23:27:14;;;;;;;6.68;3.20;;;;;;;15.69;51.23;100392.28;5973584;23;98948;-77
2022/01/02 23:29:42;;;;;;;7.80;2.72;;;;;;;15.78;51.49;100388.19;5974168;23;98627;-77
2022/01/02 23:32:11;;;;;;;5.55;2.60;;;;;;;15.85;51.06;100386.88;5975037;23;96695;-76
2022/01/02 23:34:39;;;;;;;5.63;2.72;;;;;;;15.84;50.88;100379.81;5977175;23;97095;-78
2022/01/02 23:37:08;;;;;;;8.15;3.05;;;;;;;15.74;51.16;100384.03;5976540;23;99285;-76
2022/01/02 23:39:35;;;;;;;7.32;2.97;;;;;;;15.73;51.32;100372.50;5979513;23;98896;-75
2022/01/02 23:42:04;;;;;;;7.50;2.85;;;;;;;15.75;50.94;100372.44;5976519;23;96746;-74
2022/01/02 23:44:31;;;;;;;7.03;3.28;;;;;;;15.61;51.32;100361.78;5976060;23;97144;-75
2022/01/02 23:47:03;;;;;;;5.40;2.85;;;;;;;15.62;51.62;100369.63;5977745;23;98018;-76
2022/01/02 23:49:39;;;;;;;5.40;3.00;;;;;;;15.79;51.04;100361.47;5978759;23;99020;-76
2022/01/02 23:52:11;;;;;;;4.57;2.90;;;;;;;15.74;50.92;100354.72;5981011;23;96725;-75
2022/01/02 23:54:40;;;;;;;6.53;2.75;;;;;;;15.87;50.67;100342.34;5978802;23;97047;-77
2022/01/02 23:57:07;;;;;;;5.00;2.75;;;;;;;15.60;50.75;100344.06;5975623;23;98914;-77
2022/01/02 23:59:34;;;;;;;6.82;2.88;;;;;;;15.70;51.00;100338.06;5975568;23;100870;-78
